Time;durP1;ratioP1;P1;durP2;ratioP2;P2;SDS_P1;SDS_P2;PMS_P1;PMS_P2;Temp;Humidity;BMP_temperature;BMP_pressure;BME280_temperature;BME280_humidity;BME280_pressure;Samples;Min_cycle;Max_cycle;Signal;HPM_P1;HPM_P2
2019/04/14 00:00:43;;;;;;;34.5;25.65;;;;;;;4.77;50.25391;95090.32;;;;
2019/04/14 00:02:02;;;;;;;34.5;25.65;;;;;;;4.77;50.25391;95090.32;;;;
2019/04/14 00:03:24;;;;;;;34.90001;25.45;;;;;;;4.69;50.95605;95086.11;;;;
2019/04/14 00:04:30;;;;;;;34.90001;25.45;;;;;;;4.69;50.95605;95086.11;;;;
2019/04/14 00:05:31;;;;;;;34.90001;25.45;;;;;;;4.69;50.95605;95086.11;;;;
2019/04/14 00:06:34;;;;;;;34.90001;25.45;;;;;;;4.69;50.95605;95086.11;;;;
2019/04/14 00:07:35;;;;;;;34.90001;25.45;;;;;;;4.69;50.95605;95086.11;;;;
2019/04/14 00:08:37;;;;;;;34.90001;25.45;;;;;;;4.69;50.95605;95086.11;;;;
2019/04/14 00:09:38;;;;;;;34.90001;25.45;;;;;;;4.69;50.95605;95086.11;;;;
2019/04/14 00:10:39;;;;;;;34.90001;25.45;;;;;;;4.69;50.95605;95086.11;;;;
2019/04/14 00:14:42;;;;;;;34.90001;25.45;;;;;;;4.69;50.95605;95086.11;;;;
2019/04/14 00:15:43;;;;;;;34.90001;25.45;;;;;;;4.69;50.95605;95086.11;;;;
2019/04/14 00:16:44;;;;;;;34.90001;25.45;;;;;;;4.69;50.95605;95086.11;;;;
2019/04/14 00:17:46;;;;;;;34.90001;25.45;;;;;;;4.69;50.95605;95086.11;;;;
2019/04/14 00:18:47;;;;;;;34.90001;25.45;;;;;;;4.69;50.95605;95086.11;;;;
2019/04/14 00:19:48;;;;;;;34.90001;25.45;;;;;;;4.69;50.95605;95086.11;;;;
2019/04/14 00:20:49;;;;;;;34.90001;25.45;;;;;;;4.69;50.95605;95086.11;;;;
2019/04/14 00:21:50;;;;;;;34.90001;25.45;;;;;;;4.69;50.95605;95086.11;;;;
2019/04/14 00:22:51;;;;;;;34.90001;25.45;;;;;;;4.69;50.95605;95086.11;;;;
2019/04/14 00:23:52;;;;;;;34.90001;25.45;;;;;;;4.69;50.95605;95086.11;;;;
2019/04/14 00:24:54;;;;;;;34.39999;25.50001;;;;;;;4.61;51.02148;95073.75;;;;
2019/04/14 00:25:55;;;;;;;34.39999;25.50001;;;;;;;4.61;51.02148;95073.75;;;;
2019/04/14 00:27:23;;;;;;;34.39999;25.50001;;;;;;;4.61;51.02148;95073.75;;;;
2019/04/14 00:28:24;;;;;;;34.39999;25.50001;;;;;;;4.61;51.02148;95073.75;;;;
2019/04/14 00:29:25;;;;;;;34.39999;25.50001;;;;;;;4.61;51.02148;95073.75;;;;
2019/04/14 00:30:26;;;;;;;34.39999;25.50001;;;;;;;4.61;51.02148;95073.75;;;;
2019/04/14 00:31:28;;;;;;;34.39999;25.50001;;;;;;;4.61;51.02148;95073.75;;;;
2019/04/14 00:32:30;;;;;;;34.39999;25.50001;;;;;;;4.61;51.02148;95073.75;;;;
2019/04/14 00:33:31;;;;;;;34.39999;25.50001;;;;;;;4.61;51.02148;95073.75;;;;
2019/04/14 00:34:45;;;;;;;34.39999;25.50001;;;;;;;4.61;51.02148;95073.75;;;;
2019/04/14 00:36:03;;;;;;;36;26.05;;;;;;;4.62;51.40527;95061.1;;;;
2019/04/14 00:37:15;;;;;;;36;26.05;;;;;;;4.62;51.40527;95061.1;;;;
2019/04/14 00:38:22;;;;;;;36;26.05;;;;;;;4.62;51.40527;95061.1;;;;
2019/04/14 00:39:29;;;;;;;36;26.05;;;;;;;4.62;51.40527;95061.1;;;;
2019/04/14 00:40:35;;;;;;;36;26.05;;;;;;;4.62;51.40527;95061.1;;;;
2019/04/14 00:41:42;;;;;;;36;26.05;;;;;;;4.62;51.40527;95061.1;;;;
2019/04/14 00:42:57;;;;;;;36;26.05;;;;;;;4.62;51.40527;95061.1;;;;
2019/04/14 00:44:10;;;;;;;36;26.05;;;;;;;4.62;51.40527;95061.1;;;;
2019/04/14 00:45:17;;;;;;;36;26.05;;;;;;;4.62;51.40527;95061.1;;;;
2019/04/14 00:46:24;;;;;;;34.75;25.35;;;;;;;4.62;51.59473;95065.65;;;;
2019/04/14 00:47:29;;;;;;;34.75;25.35;;;;;;;4.62;51.59473;95065.65;;;;
2019/04/14 00:48:31;;;;;;;34.75;25.35;;;;;;;4.62;51.59473;95065.65;;;;
2019/04/14 00:49:32;;;;;;;34.75;25.35;;;;;;;4.62;51.59473;95065.65;;;;
2019/04/14 00:50:33;;;;;;;34.75;25.35;;;;;;;4.62;51.59473;95065.65;;;;
2019/04/14 00:51:34;;;;;;;34.75;25.35;;;;;;;4.62;51.59473;95065.65;;;;
2019/04/14 00:52:35;;;;;;;34.75;25.35;;;;;;;4.62;51.59473;95065.65;;;;
2019/04/14 00:53:37;;;;;;;34.75;25.35;;;;;;;4.62;51.59473;95065.65;;;;
2019/04/14 00:54:38;;;;;;;34.75;25.35;;;;;;;4.62;51.59473;95065.65;;;;
2019/04/14 00:55:39;;;;;;;34.75;25.35;;;;;;;4.62;51.59473;95065.65;;;;
2019/04/14 00:56:40;;;;;;;34.65;25.75;;;;;;;4.58;51.85742;95066.16;;;;
2019/04/14 00:57:41;;;;;;;34.65;25.75;;;;;;;4.58;51.85742;95066.16;;;;
2019/04/14 00:58:42;;;;;;;34.65;25.75;;;;;;;4.58;51.85742;95066.16;;;;
2019/04/14 00:59:44;;;;;;;34.65;25.75;;;;;;;4.58;51.85742;95066.16;;;;
2019/04/14 01:00:45;;;;;;;34.65;25.75;;;;;;;4.58;51.85742;95066.16;;;;
2019/04/14 01:01:46;;;;;;;34.65;25.75;;;;;;;4.58;51.85742;95066.16;;;;
2019/04/14 01:02:47;;;;;;;34.65;25.75;;;;;;;4.58;51.85742;95066.16;;;;
2019/04/14 01:03:48;;;;;;;34.65;25.75;;;;;;;4.58;51.85742;95066.16;;;;
2019/04/14 01:04:49;;;;;;;34.65;25.75;;;;;;;4.58;51.85742;95066.16;;;;
2019/04/14 01:05:51;;;;;;;34.65;25.75;;;;;;;4.58;51.85742;95066.16;;;;
2019/04/14 01:06:52;;;;;;;35.05;25.85;;;;;;;4.48;52.08887;95054.64;;;;
2019/04/14 01:07:53;;;;;;;35.05;25.85;;;;;;;4.48;52.08887;95054.64;;;;
2019/04/14 01:08:54;;;;;;;35.05;25.85;;;;;;;4.48;52.08887;95054.64;;;;
2019/04/14 01:09:55;;;;;;;35.05;25.85;;;;;;;4.48;52.08887;95054.64;;;;
2019/04/14 01:10:57;;;;;;;35.05;25.85;;;;;;;4.48;52.08887;95054.64;;;;
2019/04/14 01:11:58;;;;;;;35.05;25.85;;;;;;;4.48;52.08887;95054.64;;;;
2019/04/14 01:12:59;;;;;;;35.05;25.85;;;;;;;4.48;52.08887;95054.64;;;;
2019/04/14 01:14:00;;;;;;;35.05;25.85;;;;;;;4.48;52.08887;95054.64;;;;
2019/04/14 01:15:02;;;;;;;35.05;25.85;;;;;;;4.48;52.08887;95054.64;;;;
2019/04/14 01:16:03;;;;;;;35.05;25.85;;;;;;;4.48;52.08887;95054.64;;;;
2019/04/14 01:17:04;;;;;;;35.05;25.85;;;;;;;4.48;52.08887;95054.64;;;;
2019/04/14 01:18:05;;;;;;;36.4;25.4;;;;;;;4.47;52.32031;95047.22;;;;
2019/04/14 01:19:07;;;;;;;36.4;25.4;;;;;;;4.47;52.32031;95047.22;;;;
2019/04/14 01:20:08;;;;;;;36.4;25.4;;;;;;;4.47;52.32031;95047.22;;;;
2019/04/14 01:21:09;;;;;;;36.4;25.4;;;;;;;4.47;52.32031;95047.22;;;;
2019/04/14 01:22:10;;;;;;;36.4;25.4;;;;;;;4.47;52.32031;95047.22;;;;
2019/04/14 01:23:11;;;;;;;36.4;25.4;;;;;;;4.47;52.32031;95047.22;;;;
2019/04/14 01:24:13;;;;;;;36.4;25.4;;;;;;;4.47;52.32031;95047.22;;;;
2019/04/14 01:25:14;;;;;;;36.4;25.4;;;;;;;4.47;52.32031;95047.22;;;;
2019/04/14 01:26:15;;;;;;;36.4;25.4;;;;;;;4.47;52.32031;95047.22;;;;
2019/04/14 01:27:16;;;;;;;36.4;25.4;;;;;;;4.47;52.32031;95047.22;;;;
2019/04/14 01:28:17;;;;;;;37.1;26.05;;;;;;;4.38;52.54492;95043.92;;;;
2019/04/14 01:29:19;;;;;;;37.1;26.05;;;;;;;4.38;52.54492;95043.92;;;;
2019/04/14 01:30:20;;;;;;;37.1;26.05;;;;;;;4.38;52.54492;95043.92;;;;
2019/04/14 01:31:21;;;;;;;37.1;26.05;;;;;;;4.38;52.54492;95043.92;;;;
2019/04/14 01:32:22;;;;;;;37.1;26.05;;;;;;;4.38;52.54492;95043.92;;;;
2019/04/14 01:33:23;;;;;;;37.1;26.05;;;;;;;4.38;52.54492;95043.92;;;;
2019/04/14 01:34:25;;;;;;;37.1;26.05;;;;;;;4.38;52.54492;95043.92;;;;
2019/04/14 01:35:26;;;;;;;37.1;26.05;;;;;;;4.38;52.54492;95043.92;;;;
2019/04/14 01:36:27;;;;;;;37.1;26.05;;;;;;;4.38;52.54492;95043.92;;;;
2019/04/14 01:37:28;;;;;;;37.1;26.05;;;;;;;4.38;52.54492;95043.92;;;;
2019/04/14 01:38:30;;;;;;;34.35;26.3;;;;;;;4.42;52.62305;95041.58;;;;
2019/04/14 01:39:31;;;;;;;34.35;26.3;;;;;;;4.42;52.62305;95041.58;;;;
2019/04/14 01:40:32;;;;;;;34.35;26.3;;;;;;;4.42;52.62305;95041.58;;;;
2019/04/14 01:41:33;;;;;;;34.35;26.3;;;;;;;4.42;52.62305;95041.58;;;;
2019/04/14 01:42:35;;;;;;;34.35;26.3;;;;;;;4.42;52.62305;95041.58;;;;
2019/04/14 01:43:36;;;;;;;34.35;26.3;;;;;;;4.42;52.62305;95041.58;;;;
2019/04/14 01:44:37;;;;;;;34.35;26.3;;;;;;;4.42;52.62305;95041.58;;;;
2019/04/14 01:45:38;;;;;;;34.35;26.3;;;;;;;4.42;52.62305;95041.58;;;;
2019/04/14 01:46:39;;;;;;;34.35;26.3;;;;;;;4.42;52.62305;95041.58;;;;
2019/04/14 01:47:41;;;;;;;34.35;26.3;;;;;;;4.42;52.62305;95041.58;;;;
2019/04/14 01:48:42;;;;;;;34.35;26.3;;;;;;;4.42;52.62305;95041.58;;;;
2019/04/14 01:49:43;;;;;;;34.84999;24.55;;;;;;;4.39;52.74609;95038.07;;;;
2019/04/14 01:50:59;;;;;;;34.84999;24.55;;;;;;;4.39;52.74609;95038.07;;;;
2019/04/14 01:52:16;;;;;;;34.84999;24.55;;;;;;;4.39;52.74609;95038.07;;;;
2019/04/14 01:53:27;;;;;;;34.84999;24.55;;;;;;;4.39;52.74609;95038.07;;;;
2019/04/14 01:54:41;;;;;;;34.84999;24.55;;;;;;;4.39;52.74609;95038.07;;;;
2019/04/14 01:55:51;;;;;;;34.84999;24.55;;;;;;;4.39;52.74609;95038.07;;;;
2019/04/14 01:57:05;;;;;;;34.84999;24.55;;;;;;;4.39;52.74609;95038.07;;;;
2019/04/14 01:58:18;;;;;;;34.84999;24.55;;;;;;;4.39;52.74609;95038.07;;;;
2019/04/14 01:59:19;;;;;;;34.84999;24.55;;;;;;;4.39;52.74609;95038.07;;;;
2019/04/14 02:01:26;;;;;;;33.10001;25.4;;;;;;;4.45;52.84863;95038.57;;;;
2019/04/14 02:02:27;;;;;;;33.10001;25.4;;;;;;;4.45;52.84863;95038.57;;;;
2019/04/14 02:03:29;;;;;;;33.10001;25.4;;;;;;;4.45;52.84863;95038.57;;;;
2019/04/14 02:04:30;;;;;;;33.10001;25.4;;;;;;;4.45;52.84863;95038.57;;;;
2019/04/14 02:05:31;;;;;;;33.10001;25.4;;;;;;;4.45;52.84863;95038.57;;;;
2019/04/14 02:06:32;;;;;;;33.10001;25.4;;;;;;;4.45;52.84863;95038.57;;;;
2019/04/14 02:07:34;;;;;;;33.10001;25.4;;;;;;;4.45;52.84863;95038.57;;;;
2019/04/14 02:08:35;;;;;;;33.10001;25.4;;;;;;;4.45;52.84863;95038.57;;;;
2019/04/14 02:09:36;;;;;;;33.10001;25.4;;;;;;;4.45;52.84863;95038.57;;;;
2019/04/14 02:10:37;;;;;;;33.5;24.95;;;;;;;4.42;52.9209;95034.48;;;;
2019/04/14 02:11:38;;;;;;;33.5;24.95;;;;;;;4.42;52.9209;95034.48;;;;
2019/04/14 02:12:40;;;;;;;33.5;24.95;;;;;;;4.42;52.9209;95034.48;;;;
2019/04/14 02:13:41;;;;;;;33.5;24.95;;;;;;;4.42;52.9209;95034.48;;;;
2019/04/14 02:14:42;;;;;;;33.5;24.95;;;;;;;4.42;52.9209;95034.48;;;;
2019/04/14 02:15:43;;;;;;;33.5;24.95;;;;;;;4.42;52.9209;95034.48;;;;
2019/04/14 02:16:45;;;;;;;33.5;24.95;;;;;;;4.42;52.9209;95034.48;;;;
2019/04/14 02:17:46;;;;;;;33.5;24.95;;;;;;;4.42;52.9209;95034.48;;;;
2019/04/14 02:18:48;;;;;;;33.5;24.95;;;;;;;4.42;52.9209;95034.48;;;;
2019/04/14 02:19:49;;;;;;;33.5;24.95;;;;;;;4.42;52.9209;95034.48;;;;
2019/04/14 02:20:50;;;;;;;33.5;24.95;;;;;;;4.42;52.9209;95034.48;;;;
2019/04/14 02:21:52;;;;;;;33.5;24.95;;;;;;;4.42;52.9209;95034.48;;;;
2019/04/14 02:22:53;;;;;;;33.5;24.95;;;;;;;4.42;52.9209;95034.48;;;;
2019/04/14 02:23:54;;;;;;;33.5;24.95;;;;;;;4.42;52.9209;95034.48;;;;
2019/04/14 02:24:55;;;;;;;33.5;24.95;;;;;;;4.42;52.9209;95034.48;;;;
2019/04/14 02:25:56;;;;;;;33.5;24.95;;;;;;;4.42;52.9209;95034.48;;;;
2019/04/14 02:26:58;;;;;;;33.5;24.95;;;;;;;4.42;52.9209;95034.48;;;;
2019/04/14 02:27:59;;;;;;;33.5;24.95;;;;;;;4.42;52.9209;95034.48;;;;
2019/04/14 02:29:00;;;;;;;33.5;24.95;;;;;;;4.42;52.9209;95034.48;;;;
2019/04/14 02:30:01;;;;;;;33.5;24.95;;;;;;;4.42;52.9209;95034.48;;;;
2019/04/14 02:31:03;;;;;;;33.5;24.95;;;;;;;4.42;52.9209;95034.48;;;;
2019/04/14 02:32:04;;;;;;;35.75;25.3;;;;;;;4.37;53.13672;95040.95;;;;
2019/04/14 02:33:06;;;;;;;35.75;25.3;;;;;;;4.37;53.13672;95040.95;;;;
2019/04/14 02:34:07;;;;;;;35.75;25.3;;;;;;;4.37;53.13672;95040.95;;;;
2019/04/14 02:35:09;;;;;;;35.75;25.3;;;;;;;4.37;53.13672;95040.95;;;;
2019/04/14 02:36:10;;;;;;;35.75;25.3;;;;;;;4.37;53.13672;95040.95;;;;
2019/04/14 02:37:11;;;;;;;35.75;25.3;;;;;;;4.37;53.13672;95040.95;;;;
2019/04/14 02:38:12;;;;;;;35.75;25.3;;;;;;;4.37;53.13672;95040.95;;;;
2019/04/14 02:39:13;;;;;;;35.75;25.3;;;;;;;4.37;53.13672;95040.95;;;;
2019/04/14 02:40:15;;;;;;;35.75;25.3;;;;;;;4.37;53.13672;95040.95;;;;
2019/04/14 02:41:16;;;;;;;35.75;25.3;;;;;;;4.37;53.13672;95040.95;;;;
2019/04/14 02:42:17;;;;;;;33.1;23.65;;;;;;;4.36;53.49707;95042.38;;;;
2019/04/14 02:43:18;;;;;;;33.1;23.65;;;;;;;4.36;53.49707;95042.38;;;;
2019/04/14 02:44:20;;;;;;;33.1;23.65;;;;;;;4.36;53.49707;95042.38;;;;
2019/04/14 02:45:21;;;;;;;33.1;23.65;;;;;;;4.36;53.49707;95042.38;;;;
2019/04/14 02:46:22;;;;;;;33.1;23.65;;;;;;;4.36;53.49707;95042.38;;;;
2019/04/14 02:47:23;;;;;;;33.1;23.65;;;;;;;4.36;53.49707;95042.38;;;;
2019/04/14 02:48:25;;;;;;;33.1;23.65;;;;;;;4.36;53.49707;95042.38;;;;
2019/04/14 02:49:26;;;;;;;33.1;23.65;;;;;;;4.36;53.49707;95042.38;;;;
2019/04/14 02:50:27;;;;;;;33.1;23.65;;;;;;;4.36;53.49707;95042.38;;;;
2019/04/14 02:51:28;;;;;;;33.1;23.65;;;;;;;4.36;53.49707;95042.38;;;;
2019/04/14 02:52:29;;;;;;;33.3;24.4;;;;;;;4.28;53.7832;95040.01;;;;
2019/04/14 02:53:30;;;;;;;33.3;24.4;;;;;;;4.28;53.7832;95040.01;;;;
2019/04/14 02:54:32;;;;;;;33.3;24.4;;;;;;;4.28;53.7832;95040.01;;;;
2019/04/14 02:55:33;;;;;;;33.3;24.4;;;;;;;4.28;53.7832;95040.01;;;;
2019/04/14 02:56:34;;;;;;;33.3;24.4;;;;;;;4.28;53.7832;95040.01;;;;
2019/04/14 02:57:35;;;;;;;33.3;24.4;;;;;;;4.28;53.7832;95040.01;;;;
2019/04/14 02:58:36;;;;;;;33.3;24.4;;;;;;;4.28;53.7832;95040.01;;;;
2019/04/14 02:59:37;;;;;;;33.3;24.4;;;;;;;4.28;53.7832;95040.01;;;;
2019/04/14 03:00:39;;;;;;;33.3;24.4;;;;;;;4.28;53.7832;95040.01;;;;
2019/04/14 03:01:40;;;;;;;33.3;24.4;;;;;;;4.28;53.7832;95040.01;;;;
2019/04/14 03:02:41;;;;;;;33.3;24.4;;;;;;;4.28;53.7832;95040.01;;;;
2019/04/14 03:03:42;;;;;;;34;24.4;;;;;;;4.24;53.96973;95040.39;;;;
2019/04/14 03:04:43;;;;;;;34;24.4;;;;;;;4.24;53.96973;95040.39;;;;
2019/04/14 03:05:44;;;;;;;34;24.4;;;;;;;4.24;53.96973;95040.39;;;;
2019/04/14 03:06:45;;;;;;;34;24.4;;;;;;;4.24;53.96973;95040.39;;;;
2019/04/14 03:07:47;;;;;;;34;24.4;;;;;;;4.24;53.96973;95040.39;;;;
2019/04/14 03:08:48;;;;;;;34;24.4;;;;;;;4.24;53.96973;95040.39;;;;
2019/04/14 03:09:49;;;;;;;34;24.4;;;;;;;4.24;53.96973;95040.39;;;;
2019/04/14 03:10:50;;;;;;;34;24.4;;;;;;;4.24;53.96973;95040.39;;;;
2019/04/14 03:11:51;;;;;;;34;24.4;;;;;;;4.24;53.96973;95040.39;;;;
2019/04/14 03:12:52;;;;;;;34;24.4;;;;;;;4.24;53.96973;95040.39;;;;
2019/04/14 03:13:54;;;;;;;33.45;24.65;;;;;;;4.11;53.95313;95034.63;;;;
2019/04/14 03:14:55;;;;;;;33.45;24.65;;;;;;;4.11;53.95313;95034.63;;;;
2019/04/14 03:15:56;;;;;;;33.45;24.65;;;;;;;4.11;53.95313;95034.63;;;;
2019/04/14 03:17:08;;;;;;;33.45;24.65;;;;;;;4.11;53.95313;95034.63;;;;
2019/04/14 03:18:24;;;;;;;33.45;24.65;;;;;;;4.11;53.95313;95034.63;;;;
2019/04/14 03:20:39;;;;;;;33.45;24.65;;;;;;;4.11;53.95313;95034.63;;;;
2019/04/14 03:21:47;;;;;;;33.45;24.65;;;;;;;4.11;53.95313;95034.63;;;;
2019/04/14 03:22:54;;;;;;;33.45;24.65;;;;;;;4.11;53.95313;95034.63;;;;
2019/04/14 03:24:19;;;;;;;33.45;24.65;;;;;;;4.11;53.95313;95034.63;;;;
2019/04/14 03:25:28;;;;;;;32.55;23.55;;;;;;;4.07;53.97949;95039.64;;;;
2019/04/14 03:26:34;;;;;;;32.55;23.55;;;;;;;4.07;53.97949;95039.64;;;;
2019/04/14 03:27:55;;;;;;;32.55;23.55;;;;;;;4.07;53.97949;95039.64;;;;
2019/04/14 03:28:59;;;;;;;32.55;23.55;;;;;;;4.07;53.97949;95039.64;;;;
2019/04/14 03:30:03;;;;;;;32.55;23.55;;;;;;;4.07;53.97949;95039.64;;;;
2019/04/14 03:31:04;;;;;;;32.55;23.55;;;;;;;4.07;53.97949;95039.64;;;;
2019/04/14 03:32:05;;;;;;;32.55;23.55;;;;;;;4.07;53.97949;95039.64;;;;
2019/04/14 03:33:07;;;;;;;32.55;23.55;;;;;;;4.07;53.97949;95039.64;;;;
2019/04/14 03:34:08;;;;;;;32.55;23.55;;;;;;;4.07;53.97949;95039.64;;;;
2019/04/14 03:35:09;;;;;;;34.45;24.8;;;;;;;4.02;54.18652;95035.85;;;;
2019/04/14 03:36:10;;;;;;;34.45;24.8;;;;;;;4.02;54.18652;95035.85;;;;
2019/04/14 03:37:11;;;;;;;34.45;24.8;;;;;;;4.02;54.18652;95035.85;;;;
2019/04/14 03:38:12;;;;;;;34.45;24.8;;;;;;;4.02;54.18652;95035.85;;;;
2019/04/14 03:39:14;;;;;;;34.45;24.8;;;;;;;4.02;54.18652;95035.85;;;;
2019/04/14 03:40:15;;;;;;;34.45;24.8;;;;;;;4.02;54.18652;95035.85;;;;
2019/04/14 03:41:16;;;;;;;34.45;24.8;;;;;;;4.02;54.18652;95035.85;;;;
2019/04/14 03:42:17;;;;;;;34.45;24.8;;;;;;;4.02;54.18652;95035.85;;;;
2019/04/14 03:43:18;;;;;;;34.45;24.8;;;;;;;4.02;54.18652;95035.85;;;;
2019/04/14 03:44:19;;;;;;;34.45;24.8;;;;;;;4.02;54.18652;95035.85;;;;
2019/04/14 03:45:21;;;;;;;34.45;24.8;;;;;;;4.02;54.18652;95035.85;;;;
2019/04/14 03:46:22;;;;;;;36.9;25.1;;;;;;;4;54.41602;95036.14;;;;
2019/04/14 03:47:23;;;;;;;36.9;25.1;;;;;;;4;54.41602;95036.14;;;;
2019/04/14 03:48:24;;;;;;;36.9;25.1;;;;;;;4;54.41602;95036.14;;;;
2019/04/14 03:49:25;;;;;;;36.9;25.1;;;;;;;4;54.41602;95036.14;;;;
2019/04/14 03:50:26;;;;;;;36.9;25.1;;;;;;;4;54.41602;95036.14;;;;
2019/04/14 03:51:27;;;;;;;36.9;25.1;;;;;;;4;54.41602;95036.14;;;;
2019/04/14 03:52:28;;;;;;;36.9;25.1;;;;;;;4;54.41602;95036.14;;;;
2019/04/14 03:53:30;;;;;;;36.9;25.1;;;;;;;4;54.41602;95036.14;;;;
2019/04/14 03:54:31;;;;;;;36.9;25.1;;;;;;;4;54.41602;95036.14;;;;
2019/04/14 03:55:32;;;;;;;36.9;25.1;;;;;;;4;54.41602;95036.14;;;;
2019/04/14 04:00:40;;;;;;;31.55;23.65;;;;;;;3.91;54.5752;95051.11;;;;
2019/04/14 04:01:41;;;;;;;31.55;23.65;;;;;;;3.91;54.5752;95051.11;;;;
2019/04/14 04:02:42;;;;;;;31.55;23.65;;;;;;;3.91;54.5752;95051.11;;;;
2019/04/14 04:03:44;;;;;;;31.55;23.65;;;;;;;3.91;54.5752;95051.11;;;;
2019/04/14 04:04:45;;;;;;;31.55;23.65;;;;;;;3.91;54.5752;95051.11;;;;
2019/04/14 04:05:46;;;;;;;31.55;23.65;;;;;;;3.91;54.5752;95051.11;;;;
2019/04/14 04:06:47;;;;;;;34.7;24.85;;;;;;;3.88;54.97266;95045.35;;;;
2019/04/14 04:07:48;;;;;;;34.7;24.85;;;;;;;3.88;54.97266;95045.35;;;;
2019/04/14 04:08:49;;;;;;;34.7;24.85;;;;;;;3.88;54.97266;95045.35;;;;
2019/04/14 04:09:57;;;;;;;34.7;24.85;;;;;;;3.88;54.97266;95045.35;;;;
2019/04/14 04:10:59;;;;;;;34.7;24.85;;;;;;;3.88;54.97266;95045.35;;;;
2019/04/14 04:12:00;;;;;;;34.7;24.85;;;;;;;3.88;54.97266;95045.35;;;;
2019/04/14 04:13:01;;;;;;;34.7;24.85;;;;;;;3.88;54.97266;95045.35;;;;
2019/04/14 04:14:02;;;;;;;34.7;24.85;;;;;;;3.88;54.97266;95045.35;;;;
2019/04/14 04:15:03;;;;;;;34.7;24.85;;;;;;;3.88;54.97266;95045.35;;;;
2019/04/14 04:16:15;;;;;;;34.7;24.85;;;;;;;3.88;54.97266;95045.35;;;;
2019/04/14 04:17:26;;;;;;;34.7;24.85;;;;;;;3.88;54.97266;95045.35;;;;
2019/04/14 04:18:27;;;;;;;35.45;24.79999;;;;;;;3.81;55.43066;95040.92;;;;
2019/04/14 04:24:41;;;;;;;35.45;24.79999;;;;;;;3.81;55.43066;95040.92;;;;
2019/04/14 04:25:47;;;;;;;35.45;24.79999;;;;;;;3.81;55.43066;95040.92;;;;
2019/04/14 04:26:59;;;;;;;35.45;24.79999;;;;;;;3.81;55.43066;95040.92;;;;
2019/04/14 04:29:07;;;;;;;35.45;24.79999;;;;;;;3.81;55.43066;95040.92;;;;
2019/04/14 04:30:12;;;;;;;35;25.95;;;;;;;3.84;55.63574;95049.35;;;;
2019/04/14 04:32:04;;;;;;;35;25.95;;;;;;;3.84;55.63574;95049.35;;;;
2019/04/14 04:33:17;;;;;;;35;25.95;;;;;;;3.84;55.63574;95049.35;;;;
2019/04/14 04:39:31;;;;;;;34.95;25.85;;;;;;;3.78;56.02051;95055.49;;;;
2019/04/14 04:40:32;;;;;;;34.95;25.85;;;;;;;3.78;56.02051;95055.49;;;;
2019/04/14 04:41:33;;;;;;;34.95;25.85;;;;;;;3.78;56.02051;95055.49;;;;
2019/04/14 04:42:34;;;;;;;34.95;25.85;;;;;;;3.78;56.02051;95055.49;;;;
2019/04/14 04:43:35;;;;;;;34.95;25.85;;;;;;;3.78;56.02051;95055.49;;;;
2019/04/14 04:44:36;;;;;;;34.95;25.85;;;;;;;3.78;56.02051;95055.49;;;;
2019/04/14 04:45:37;;;;;;;34.95;25.85;;;;;;;3.78;56.02051;95055.49;;;;
2019/04/14 04:46:39;;;;;;;34.95;25.85;;;;;;;3.78;56.02051;95055.49;;;;
2019/04/14 04:47:40;;;;;;;34.95;25.85;;;;;;;3.78;56.02051;95055.49;;;;
2019/04/14 04:48:41;;;;;;;34.95;25.85;;;;;;;3.78;56.02051;95055.49;;;;
2019/04/14 04:49:42;;;;;;;37.25;25.9;;;;;;;3.82;56.26855;95071.92;;;;
2019/04/14 04:50:43;;;;;;;37.25;25.9;;;;;;;3.82;56.26855;95071.92;;;;
2019/04/14 04:51:44;;;;;;;37.25;25.9;;;;;;;3.82;56.26855;95071.92;;;;
2019/04/14 04:52:45;;;;;;;37.25;25.9;;;;;;;3.82;56.26855;95071.92;;;;
2019/04/14 04:53:47;;;;;;;37.25;25.9;;;;;;;3.82;56.26855;95071.92;;;;
2019/04/14 04:54:48;;;;;;;37.25;25.9;;;;;;;3.82;56.26855;95071.92;;;;
2019/04/14 04:55:49;;;;;;;37.25;25.9;;;;;;;3.82;56.26855;95071.92;;;;
2019/04/14 04:56:50;;;;;;;37.25;25.9;;;;;;;3.82;56.26855;95071.92;;;;
2019/04/14 04:57:51;;;;;;;37.25;25.9;;;;;;;3.82;56.26855;95071.92;;;;
2019/04/14 04:58:52;;;;;;;37.25;25.9;;;;;;;3.82;56.26855;95071.92;;;;
2019/04/14 04:59:54;;;;;;;37.25;25.9;;;;;;;3.82;56.26855;95071.92;;;;
2019/04/14 05:00:55;;;;;;;37.25;25.9;;;;;;;3.82;56.26855;95071.92;;;;
2019/04/14 05:01:56;;;;;;;37.25;25.9;;;;;;;3.82;56.26855;95071.92;;;;
2019/04/14 05:02:57;;;;;;;37.25;25.9;;;;;;;3.82;56.26855;95071.92;;;;
2019/04/14 05:03:58;;;;;;;37.25;25.9;;;;;;;3.82;56.26855;95071.92;;;;
2019/04/14 05:04:59;;;;;;;37.25;25.9;;;;;;;3.82;56.26855;95071.92;;;;
2019/04/14 05:06:01;;;;;;;37.25;25.9;;;;;;;3.82;56.26855;95071.92;;;;
2019/04/14 05:07:07;;;;;;;37.25;25.9;;;;;;;3.82;56.26855;95071.92;;;;
2019/04/14 05:08:08;;;;;;;37.25;25.9;;;;;;;3.82;56.26855;95071.92;;;;
2019/04/14 05:09:16;;;;;;;37.25;25.9;;;;;;;3.82;56.26855;95071.92;;;;
2019/04/14 05:10:25;;;;;;;37.25;25.9;;;;;;;3.82;56.26855;95071.92;;;;
2019/04/14 05:11:31;;;;;;;37.7;26.3;;;;;;;3.89;56.29883;95097.22;;;;
2019/04/14 05:12:38;;;;;;;37.7;26.3;;;;;;;3.89;56.29883;95097.22;;;;
2019/04/14 05:13:40;;;;;;;37.7;26.3;;;;;;;3.89;56.29883;95097.22;;;;
2019/04/14 05:14:46;;;;;;;37.7;26.3;;;;;;;3.89;56.29883;95097.22;;;;
2019/04/14 05:15:51;;;;;;;37.7;26.3;;;;;;;3.89;56.29883;95097.22;;;;
2019/04/14 05:16:52;;;;;;;37.7;26.3;;;;;;;3.89;56.29883;95097.22;;;;
2019/04/14 05:17:53;;;;;;;37.7;26.3;;;;;;;3.89;56.29883;95097.22;;;;
2019/04/14 05:18:54;;;;;;;37.7;26.3;;;;;;;3.89;56.29883;95097.22;;;;
2019/04/14 05:19:55;;;;;;;37.7;26.3;;;;;;;3.89;56.29883;95097.22;;;;
2019/04/14 05:20:57;;;;;;;37.7;26.3;;;;;;;3.89;56.29883;95097.22;;;;
2019/04/14 05:21:58;;;;;;;37.55;27.2;;;;;;;4.03;56.35938;95106.13;;;;
2019/04/14 05:22:59;;;;;;;37.55;27.2;;;;;;;4.03;56.35938;95106.13;;;;
2019/04/14 05:24:00;;;;;;;37.55;27.2;;;;;;;4.03;56.35938;95106.13;;;;
2019/04/14 05:25:01;;;;;;;37.55;27.2;;;;;;;4.03;56.35938;95106.13;;;;
2019/04/14 05:26:02;;;;;;;37.55;27.2;;;;;;;4.03;56.35938;95106.13;;;;
2019/04/14 05:27:03;;;;;;;37.55;27.2;;;;;;;4.03;56.35938;95106.13;;;;
2019/04/14 05:28:05;;;;;;;37.55;27.2;;;;;;;4.03;56.35938;95106.13;;;;
2019/04/14 05:29:06;;;;;;;37.55;27.2;;;;;;;4.03;56.35938;95106.13;;;;
2019/04/14 05:30:07;;;;;;;37.55;27.2;;;;;;;4.03;56.35938;95106.13;;;;
2019/04/14 05:31:08;;;;;;;37.55;27.2;;;;;;;4.03;56.35938;95106.13;;;;
2019/04/14 05:32:09;;;;;;;35;26.25;;;;;;;4.27;56.74121;95115.75;;;;
2019/04/14 05:33:10;;;;;;;35;26.25;;;;;;;4.27;56.74121;95115.75;;;;
2019/04/14 05:34:12;;;;;;;35;26.25;;;;;;;4.27;56.74121;95115.75;;;;
2019/04/14 05:35:13;;;;;;;35;26.25;;;;;;;4.27;56.74121;95115.75;;;;
2019/04/14 05:36:14;;;;;;;35;26.25;;;;;;;4.27;56.74121;95115.75;;;;
2019/04/14 05:37:15;;;;;;;35;26.25;;;;;;;4.27;56.74121;95115.75;;;;
2019/04/14 05:38:17;;;;;;;35;26.25;;;;;;;4.27;56.74121;95115.75;;;;
2019/04/14 05:39:18;;;;;;;35;26.25;;;;;;;4.27;56.74121;95115.75;;;;
2019/04/14 05:40:19;;;;;;;35;26.25;;;;;;;4.27;56.74121;95115.75;;;;
2019/04/14 05:41:20;;;;;;;35;26.25;;;;;;;4.27;56.74121;95115.75;;;;
2019/04/14 05:42:21;;;;;;;37.15;26.5;;;;;;;4.4;56.85254;95106.52;;;;
2019/04/14 05:43:22;;;;;;;37.15;26.5;;;;;;;4.4;56.85254;95106.52;;;;
2019/04/14 05:44:24;;;;;;;37.15;26.5;;;;;;;4.4;56.85254;95106.52;;;;
2019/04/14 05:45:25;;;;;;;37.15;26.5;;;;;;;4.4;56.85254;95106.52;;;;
2019/04/14 05:46:26;;;;;;;37.15;26.5;;;;;;;4.4;56.85254;95106.52;;;;
2019/04/14 05:47:27;;;;;;;37.15;26.5;;;;;;;4.4;56.85254;95106.52;;;;
2019/04/14 05:48:28;;;;;;;37.15;26.5;;;;;;;4.4;56.85254;95106.52;;;;
2019/04/14 05:49:29;;;;;;;37.15;26.5;;;;;;;4.4;56.85254;95106.52;;;;
2019/04/14 05:50:30;;;;;;;37.15;26.5;;;;;;;4.4;56.85254;95106.52;;;;
2019/04/14 05:51:32;;;;;;;37.15;26.5;;;;;;;4.4;56.85254;95106.52;;;;
2019/04/14 05:52:33;;;;;;;37.15;26.5;;;;;;;4.4;56.85254;95106.52;;;;
2019/04/14 05:53:34;;;;;;;35.1;25.85;;;;;;;4.61;56.94531;95104.08;;;;
2019/04/14 05:54:35;;;;;;;35.1;25.85;;;;;;;4.61;56.94531;95104.08;;;;
2019/04/14 05:55:36;;;;;;;35.1;25.85;;;;;;;4.61;56.94531;95104.08;;;;
2019/04/14 05:56:37;;;;;;;35.1;25.85;;;;;;;4.61;56.94531;95104.08;;;;
2019/04/14 05:57:38;;;;;;;35.1;25.85;;;;;;;4.61;56.94531;95104.08;;;;
2019/04/14 05:58:40;;;;;;;35.1;25.85;;;;;;;4.61;56.94531;95104.08;;;;
2019/04/14 05:59:41;;;;;;;35.1;25.85;;;;;;;4.61;56.94531;95104.08;;;;
2019/04/14 06:00:45;;;;;;;35.1;25.85;;;;;;;4.61;56.94531;95104.08;;;;
2019/04/14 06:01:46;;;;;;;35.1;25.85;;;;;;;4.61;56.94531;95104.08;;;;
2019/04/14 06:02:47;;;;;;;35.1;25.85;;;;;;;4.61;56.94531;95104.08;;;;
2019/04/14 06:03:48;;;;;;;38.9;27.65;;;;;;;4.82;56.91992;95109.66;;;;
2019/04/14 06:04:49;;;;;;;38.9;27.65;;;;;;;4.82;56.91992;95109.66;;;;
2019/04/14 06:05:51;;;;;;;38.9;27.65;;;;;;;4.82;56.91992;95109.66;;;;
2019/04/14 06:06:52;;;;;;;38.9;27.65;;;;;;;4.82;56.91992;95109.66;;;;
2019/04/14 06:07:53;;;;;;;38.9;27.65;;;;;;;4.82;56.91992;95109.66;;;;
2019/04/14 06:08:54;;;;;;;38.9;27.65;;;;;;;4.82;56.91992;95109.66;;;;
2019/04/14 06:09:55;;;;;;;38.9;27.65;;;;;;;4.82;56.91992;95109.66;;;;
2019/04/14 06:10:56;;;;;;;38.9;27.65;;;;;;;4.82;56.91992;95109.66;;;;
2019/04/14 06:11:58;;;;;;;38.9;27.65;;;;;;;4.82;56.91992;95109.66;;;;
2019/04/14 06:12:59;;;;;;;38.9;27.65;;;;;;;4.82;56.91992;95109.66;;;;
2019/04/14 06:14:00;;;;;;;38.9;27.65;;;;;;;4.82;56.91992;95109.66;;;;